Time;durP1;ratioP1;P1;durP2;ratioP2;P2;SDS_P1;SDS_P2;PMS_P1;PMS_P2;Temp;Humidity;BMP_temperature;BMP_pressure;BME280_temperature;BME280_humidity;BME280_pressure;Samples;Min_cycle;Max_cycle;Signal;HPM_P1;HPM_P2
2021/04/18 00:01:32;;;;;;;16.67;5.13;;;;;;;;;;5091087;28;20024;-75
2021/04/18 00:03:58;;;;;;;18.98;4.57;;;;;;;;;;5086094;28;20630;-75
2021/04/18 00:06:25;;;;;;;19.92;4.35;;;;;;;;;;5085746;28;20024;-75
2021/04/18 00:08:51;;;;;;;16.85;4.35;;;;;;;;;;5089540;28;20035;-76
2021/04/18 00:11:17;;;;;;;16.08;4.35;;;;;;;;;;5088140;28;20028;-75
2021/04/18 00:13:43;;;;;;;16.58;3.95;;;;;;;;;;5083450;28;20040;-75
2021/04/18 00:16:10;;;;;;;14.88;4.07;;;;;;;;;;5088903;28;20032;-75
2021/04/18 00:18:36;;;;;;;11.85;3.67;;;;;;;;;;5088823;28;20536;-75
2021/04/18 00:21:02;;;;;;;16.30;4.45;;;;;;;;;;5088718;28;20028;-75
2021/04/18 00:23:28;;;;;;;24.02;4.53;;;;;;;;;;5089621;28;20035;-75
2021/04/18 00:25:54;;;;;;;20.83;4.57;;;;;;;;;;5084452;28;20024;-74
2021/04/18 00:28:20;;;;;;;15.65;4.57;;;;;;;;;;5089968;28;20098;-74
2021/04/18 00:30:47;;;;;;;20.05;4.78;;;;;;;;;;5089279;28;20410;-75
2021/04/18 00:33:13;;;;;;;15.75;4.95;;;;;;;;;;5087328;28;20121;-75
2021/04/18 00:35:39;;;;;;;15.52;4.30;;;;;;;;;;5090941;28;20610;-76
2021/04/18 00:38:05;;;;;;;11.65;5.28;;;;;;;;;;5092005;28;20486;-75
2021/04/18 00:40:31;;;;;;;12.07;4.93;;;;;;;;;;5088861;28;20032;-75
2021/04/18 00:42:57;;;;;;;15.38;5.50;;;;;;;;;;5090760;28;20031;-75
2021/04/18 00:45:23;;;;;;;29.55;5.45;;;;;;;;;;5089941;28;20077;-76
2021/04/18 00:47:51;;;;;;;25.83;4.93;;;;;;;;;;5089393;28;20028;-75
2021/04/18 00:50:28;;;;;;;17.13;4.90;;;;;;;;;;5088112;28;20020;-75
2021/04/18 00:52:55;;;;;;;25.35;5.85;;;;;;;;;;5088503;28;20025;-75
2021/04/18 00:55:22;;;;;;;18.20;5.38;;;;;;;;;;5087395;28;20016;-75
2021/04/18 00:57:48;;;;;;;18.73;5.10;;;;;;;;;;5089863;28;20039;-76
2021/04/18 01:00:14;;;;;;;17.75;4.47;;;;;;;;;;5086604;28;20494;-76
2021/04/18 01:02:40;;;;;;;21.08;4.90;;;;;;;;;;5090938;28;20030;-76
2021/04/18 01:05:07;;;;;;;18.27;5.30;;;;;;;;;;5089614;28;20020;-76
2021/04/18 01:07:34;;;;;;;22.35;5.28;;;;;;;;;;5088323;28;20506;-75
2021/04/18 01:10:00;;;;;;;25.63;6.68;;;;;;;;;;5084874;28;20036;-76
2021/04/18 01:12:26;;;;;;;12.90;4.55;;;;;;;;;;5090323;28;20101;-77
2021/04/18 01:14:52;;;;;;;15.68;4.05;;;;;;;;;;5081353;28;20164;-75
2021/04/18 01:17:18;;;;;;;27.63;5.72;;;;;;;;;;5086254;28;20024;-74
2021/04/18 01:19:44;;;;;;;13.82;4.10;;;;;;;;;;5086101;28;20032;-75
2021/04/18 01:22:10;;;;;;;13.00;3.47;;;;;;;;;;5090521;28;20020;-75
2021/04/18 01:24:36;;;;;;;15.00;3.63;;;;;;;;;;5085588;28;20032;-75
2021/04/18 01:27:04;;;;;;;19.23;3.85;;;;;;;;;;5085561;28;20024;-75
2021/04/18 01:29:30;;;;;;;19.13;4.72;;;;;;;;;;5084976;28;20110;-75
2021/04/18 01:31:56;;;;;;;14.73;3.70;;;;;;;;;;5081645;28;20425;-75
2021/04/18 01:34:23;;;;;;;20.50;4.68;;;;;;;;;;5085480;28;20039;-75
2021/04/18 01:36:49;;;;;;;15.40;4.07;;;;;;;;;;5089024;28;20035;-75
2021/04/18 01:39:15;;;;;;;14.30;4.45;;;;;;;;;;5091046;28;20107;-75
2021/04/18 01:41:42;;;;;;;24.75;4.82;;;;;;;;;;5089853;28;20166;-74
2021/04/18 01:44:12;;;;;;;12.43;4.85;;;;;;;;;;5086108;28;20027;-75
2021/04/18 01:46:42;;;;;;;16.40;4.30;;;;;;;;;;5088503;28;20028;-76
2021/04/18 01:49:08;;;;;;;14.30;3.90;;;;;;;;;;5087006;28;20032;-75
2021/04/18 01:51:34;;;;;;;18.13;5.35;;;;;;;;;;5086009;28;20024;-75
2021/04/18 01:54:01;;;;;;;19.95;4.90;;;;;;;;;;5088001;28;20051;-75
2021/04/18 01:56:27;;;;;;;21.75;5.00;;;;;;;;;;5088933;28;20032;-76
2021/04/18 01:58:54;;;;;;;17.52;4.30;;;;;;;;;;5087748;28;20063;-76
2021/04/18 02:01:20;;;;;;;19.30;3.92;;;;;;;;;;5089037;28;20114;-75
2021/04/18 02:03:46;;;;;;;17.08;4.32;;;;;;;;;;5089550;28;20100;-75
2021/04/18 02:06:12;;;;;;;15.32;3.38;;;;;;;;;;5089178;28;20127;-76
2021/04/18 02:08:38;;;;;;;10.88;3.45;;;;;;;;;;5076338;28;20020;-75
2021/04/18 02:11:04;;;;;;;12.25;3.60;;;;;;;;;;5086550;28;20032;-75
2021/04/18 02:13:31;;;;;;;16.67;4.65;;;;;;;;;;5087213;28;20036;-76
2021/04/18 02:15:57;;;;;;;16.40;3.88;;;;;;;;;;5089913;28;20128;-76
2021/04/18 02:18:23;;;;;;;19.65;4.03;;;;;;;;;;5088619;28;20465;-76
2021/04/18 02:20:49;;;;;;;18.50;4.50;;;;;;;;;;5087172;28;20059;-76
2021/04/18 02:23:16;;;;;;;17.00;3.58;;;;;;;;;;5088140;28;20399;-76
2021/04/18 02:25:42;;;;;;;14.25;3.85;;;;;;;;;;5087296;28;20444;-75
2021/04/18 02:28:08;;;;;;;19.02;3.20;;;;;;;;;;5080768;28;20048;-75
2021/04/18 02:30:34;;;;;;;11.63;3.50;;;;;;;;;;5080923;28;20025;-75
2021/04/18 02:33:01;;;;;;;18.20;3.90;;;;;;;;;;5083708;28;20036;-74
2021/04/18 02:35:28;;;;;;;15.95;3.53;;;;;;;;;;5088024;28;20061;-74
2021/04/18 02:37:54;;;;;;;17.00;4.53;;;;;;;;;;5088031;28;20085;-75
2021/04/18 02:40:20;;;;;;;16.13;3.97;;;;;;;;;;5087703;28;20092;-75
2021/04/18 02:42:46;;;;;;;14.50;3.25;;;;;;;;;;5081450;28;20031;-76
2021/04/18 02:45:12;;;;;;;12.65;3.38;;;;;;;;;;5088134;28;20050;-75
2021/04/18 02:47:38;;;;;;;18.98;4.50;;;;;;;;;;5087998;28;20024;-75
2021/04/18 02:50:05;;;;;;;18.58;3.75;;;;;;;;;;5086415;28;20020;-75
2021/04/18 02:52:31;;;;;;;20.20;4.13;;;;;;;;;;5088613;28;20031;-75
2021/04/18 02:54:57;;;;;;;11.75;4.78;;;;;;;;;;5085262;28;20051;-75
2021/04/18 02:57:24;;;;;;;18.67;4.38;;;;;;;;;;5087744;28;20024;-76
2021/04/18 02:59:50;;;;;;;22.25;4.28;;;;;;;;;;5086728;28;20031;-75
2021/04/18 03:02:16;;;;;;;24.15;4.97;;;;;;;;;;5089226;28;20417;-75
2021/04/18 03:04:42;;;;;;;19.45;4.15;;;;;;;;;;5087815;28;20235;-75
2021/04/18 03:07:08;;;;;;;15.75;3.65;;;;;;;;;;5087639;28;20032;-75
2021/04/18 03:09:34;;;;;;;17.95;3.95;;;;;;;;;;5086410;28;20107;-77
2021/04/18 03:12:00;;;;;;;17.55;4.22;;;;;;;;;;5087254;28;20066;-75
2021/04/18 03:14:26;;;;;;;10.88;4.05;;;;;;;;;;5086851;28;20142;-75
2021/04/18 03:16:52;;;;;;;19.42;4.18;;;;;;;;;;5090358;28;20032;-74
2021/04/18 03:19:18;;;;;;;18.35;4.15;;;;;;;;;;5088744;28;20036;-75
2021/04/18 03:21:44;;;;;;;24.67;4.38;;;;;;;;;;5092239;28;20016;-75
2021/04/18 03:24:10;;;;;;;24.80;4.18;;;;;;;;;;5086903;28;20123;-74
2021/04/18 03:26:36;;;;;;;14.05;3.90;;;;;;;;;;5086750;28;20074;-74
2021/04/18 03:29:02;;;;;;;18.60;4.35;;;;;;;;;;5088604;28;20009;-74
2021/04/18 03:31:29;;;;;;;12.68;4.05;;;;;;;;;;5087479;28;20546;-75
2021/04/18 03:33:55;;;;;;;16.80;3.90;;;;;;;;;;5085093;28;20036;-75
2021/04/18 03:36:21;;;;;;;13.00;3.90;;;;;;;;;;5091475;28;20028;-75
2021/04/18 03:38:47;;;;;;;20.67;3.70;;;;;;;;;;5090579;28;20098;-75
2021/04/18 03:41:13;;;;;;;23.17;3.78;;;;;;;;;;5091778;28;20057;-75
2021/04/18 03:43:39;;;;;;;17.27;3.78;;;;;;;;;;5090010;28;20020;-75
2021/04/18 03:46:05;;;;;;;17.60;4.00;;;;;;;;;;5088878;28;20031;-75
2021/04/18 03:48:31;;;;;;;17.00;3.50;;;;;;;;;;5092621;28;20137;-75
2021/04/18 03:50:58;;;;;;;19.33;3.42;;;;;;;;;;5085477;28;20028;-75
2021/04/18 03:53:24;;;;;;;17.55;4.85;;;;;;;;;;5091781;28;20020;-75
2021/04/18 03:55:50;;;;;;;9.68;3.10;;;;;;;;;;5089570;28;20050;-75
2021/04/18 03:58:16;;;;;;;11.48;3.15;;;;;;;;;;5090035;28;20478;-75
2021/04/18 04:00:42;;;;;;;13.65;3.65;;;;;;;;;;5090061;28;20024;-75
2021/04/18 04:03:08;;;;;;;13.40;3.78;;;;;;;;;;5090576;28;20513;-76
2021/04/18 04:05:34;;;;;;;14.07;4.57;;;;;;;;;;5090385;28;20024;-75
2021/04/18 04:08:00;;;;;;;17.60;3.70;;;;;;;;;;5086983;28;20067;-74
2021/04/18 04:10:26;;;;;;;18.92;3.85;;;;;;;;;;5089862;28;20039;-75
2021/04/18 04:12:52;;;;;;;11.60;3.90;;;;;;;;;;5089539;28;20017;-76
2021/04/18 04:15:18;;;;;;;13.15;3.80;;;;;;;;;;5081785;28;20027;-74
2021/04/18 04:17:44;;;;;;;14.95;3.67;;;;;;;;;;5089779;28;20044;-74
2021/04/18 04:20:11;;;;;;;15.50;3.72;;;;;;;;;;5090334;28;20040;-76
2021/04/18 04:22:37;;;;;;;11.82;3.13;;;;;;;;;;5092081;28;20119;-75
2021/04/18 04:25:04;;;;;;;16.27;3.63;;;;;;;;;;5088065;28;20279;-76
2021/04/18 04:27:30;;;;;;;15.73;3.83;;;;;;;;;;5090285;28;20028;-74
2021/04/18 04:29:56;;;;;;;17.02;3.55;;;;;;;;;;5087635;28;20106;-75
2021/04/18 04:32:22;;;;;;;14.45;3.15;;;;;;;;;;5090206;28;20032;-75
2021/04/18 04:34:48;;;;;;;10.73;3.13;;;;;;;;;;5089587;28;20032;-74
2021/04/18 04:37:14;;;;;;;9.10;2.88;;;;;;;;;;5090443;28;20035;-75
2021/04/18 04:39:40;;;;;;;11.60;3.33;;;;;;;;;;5088183;28;20051;-74
2021/04/18 04:42:06;;;;;;;13.35;3.25;;;;;;;;;;5091458;28;20024;-75
2021/04/18 04:44:32;;;;;;;12.43;3.38;;;;;;;;;;5086319;28;20081;-75
2021/04/18 04:46:59;;;;;;;15.38;3.47;;;;;;;;;;5089328;28;20024;-75
2021/04/18 04:49:25;;;;;;;10.93;3.55;;;;;;;;;;5089204;28;20054;-75
2021/04/18 04:51:51;;;;;;;19.15;3.42;;;;;;;;;;5090793;28;20123;-75
2021/04/18 04:54:17;;;;;;;17.63;3.55;;;;;;;;;;5087980;28;20036;-75
2021/04/18 04:56:43;;;;;;;10.20;3.50;;;;;;;;;;5088971;28;20506;-74
2021/04/18 04:59:10;;;;;;;18.63;4.18;;;;;;;;;;5083657;28;20076;-75
2021/04/18 05:01:36;;;;;;;12.05;3.47;;;;;;;;;;5088633;28;20020;-74
2021/04/18 05:04:02;;;;;;;16.73;4.20;;;;;;;;;;5089025;28;20032;-74
2021/04/18 05:06:28;;;;;;;13.55;3.80;;;;;;;;;;5090182;28;20107;-74
2021/04/18 05:08:54;;;;;;;14.55;4.15;;;;;;;;;;5089376;28;20028;-76
2021/04/18 05:11:20;;;;;;;12.63;4.28;;;;;;;;;;5086350;28;20032;-75
2021/04/18 05:13:46;;;;;;;15.48;4.20;;;;;;;;;;5087667;28;20060;-75
2021/04/18 05:16:12;;;;;;;15.95;3.75;;;;;;;;;;5089333;28;20514;-75
2021/04/18 05:18:38;;;;;;;14.45;3.95;;;;;;;;;;5088615;28;20043;-76
2021/04/18 05:21:04;;;;;;;15.10;4.25;;;;;;;;;;5087367;28;20429;-74
2021/04/18 05:23:30;;;;;;;16.33;3.38;;;;;;;;;;5089480;28;20116;-75
2021/04/18 05:25:56;;;;;;;13.60;3.35;;;;;;;;;;5088642;28;20035;-75
2021/04/18 05:28:22;;;;;;;11.30;3.33;;;;;;;;;;5087042;28;20027;-74
2021/04/18 05:30:48;;;;;;;21.85;5.50;;;;;;;;;;5087092;28;20490;-74
2021/04/18 05:33:14;;;;;;;18.40;4.20;;;;;;;;;;5090694;28;20108;-74
2021/04/18 05:35:41;;;;;;;16.40;4.00;;;;;;;;;;5086658;28;20024;-74
2021/04/18 05:38:07;;;;;;;12.25;3.63;;;;;;;;;;5088981;28;20020;-74
2021/04/18 05:40:33;;;;;;;11.88;3.78;;;;;;;;;;5086790;28;20099;-75
2021/04/18 05:42:59;;;;;;;12.73;3.72;;;;;;;;;;5087026;28;20016;-75
2021/04/18 05:45:25;;;;;;;10.65;3.63;;;;;;;;;;5087014;28;20040;-75
2021/04/18 05:47:51;;;;;;;16.05;3.45;;;;;;;;;;5084339;28;20060;-75
2021/04/18 05:50:17;;;;;;;14.18;3.83;;;;;;;;;;5081613;28;20051;-75
2021/04/18 05:52:44;;;;;;;15.75;3.65;;;;;;;;;;5090075;28;20034;-75
2021/04/18 05:55:10;;;;;;;14.40;3.65;;;;;;;;;;5087644;28;20031;-75
2021/04/18 05:57:36;;;;;;;16.08;4.13;;;;;;;;;;5087910;28;20560;-75
2021/04/18 06:00:06;;;;;;;15.48;4.03;;;;;;;;;;5086214;28;20086;-76
2021/04/18 06:02:32;;;;;;;12.27;4.30;;;;;;;;;;5079824;28;20036;-75
2021/04/18 06:04:58;;;;;;;15.82;4.32;;;;;;;;;;5086559;28;20060;-75
2021/04/18 06:07:24;;;;;;;14.82;4.93;;;;;;;;;;5088647;28;20020;-75
2021/04/18 06:09:51;;;;;;;14.68;4.20;;;;;;;;;;5080702;28;20066;-75
2021/04/18 06:12:17;;;;;;;27.92;5.43;;;;;;;;;;5087896;28;20020;-75
2021/04/18 06:14:43;;;;;;;18.20;4.00;;;;;;;;;;5084328;28;20016;-76
2021/04/18 06:17:09;;;;;;;16.63;4.50;;;;;;;;;;5082357;28;20043;-75
2021/04/18 06:19:35;;;;;;;21.80;4.60;;;;;;;;;;5085914;28;20040;-75
2021/04/18 06:22:01;;;;;;;16.42;4.32;;;;;;;;;;5088620;28;20482;-75
2021/04/18 06:24:28;;;;;;;16.92;4.88;;;;;;;;;;5089155;28;20435;-75
2021/04/18 06:26:54;;;;;;;21.48;4.32;;;;;;;;;;5089040;28;20028;-75
2021/04/18 06:29:20;;;;;;;18.80;4.55;;;;;;;;;;5087187;28;20032;-76
2021/04/18 06:31:46;;;;;;;17.67;4.38;;;;;;;;;;5086884;28;20032;-75
2021/04/18 06:34:12;;;;;;;15.45;3.95;;;;;;;;;;5083620;28;20028;-75
2021/04/18 06:36:38;;;;;;;14.35;4.60;;;;;;;;;;5084257;28;20093;-75
2021/04/18 06:39:04;;;;;;;14.20;5.00;;;;;;;;;;5091839;28;20051;-76
2021/04/18 06:41:34;;;;;;;13.77;3.70;;;;;;;;;;5086416;28;20019;-75
2021/04/18 06:44:02;;;;;;;19.55;3.92;;;;;;;;;;5087974;28;20038;-75
2021/04/18 06:46:28;;;;;;;17.10;3.97;;;;;;;;;;5087913;28;20490;-73
2021/04/18 06:48:54;;;;;;;13.77;4.22;;;;;;;;;;5088194;28;20166;-76
2021/04/18 06:51:21;;;;;;;15.50;4.00;;;;;;;;;;5090492;28;20031;-75
2021/04/18 06:53:50;;;;;;;13.65;4.45;;;;;;;;;;5089937;28;20036;-75
2021/04/18 06:56:16;;;;;;;17.27;4.65;;;;;;;;;;5090867;28;20158;-75
2021/04/18 06:58:42;;;;;;;13.70;4.28;;;;;;;;;;5085569;28;20087;-75
2021/04/18 07:01:08;;;;;;;17.00;4.90;;;;;;;;;;5089557;28;20035;-75
2021/04/18 07:03:35;;;;;;;19.58;4.57;;;;;;;;;;5092330;28;20053;-74
2021/04/18 07:06:02;;;;;;;13.05;3.30;;;;;;;;;;5092640;28;20028;-76
2021/04/18 07:08:29;;;;;;;19.25;5.28;;;;;;;;;;5088707;28;20036;-76
2021/04/18 07:11:10;;;;;;;15.52;5.13;;;;;;;;;;5089990;28;20063;-75
2021/04/18 07:13:37;;;;;;;15.67;4.67;;;;;;;;;;5090074;28;20024;-76
2021/04/18 07:16:03;;;;;;;14.15;5.05;;;;;;;;;;5089298;28;20081;-76
2021/04/18 07:18:40;;;;;;;21.02;3.70;;;;;;;;;;5089281;28;20044;-75
2021/04/18 07:21:06;;;;;;;15.77;3.88;;;;;;;;;;5081716;28;20059;-75
2021/04/18 07:23:36;;;;;;;20.73;4.25;;;;;;;;;;5090620;28;20020;-75
2021/04/18 07:26:21;;;;;;;15.50;3.70;;;;;;;;;;5091162;28;20089;-75
2021/04/18 07:28:48;;;;;;;22.60;4.10;;;;;;;;;;5089920;28;20442;-74
2021/04/18 07:31:27;;;;;;;13.75;3.55;;;;;;;;;;5088229;28;20051;-75
2021/04/18 07:34:06;;;;;;;12.48;3.88;;;;;;;;;;5082240;28;20028;-74
2021/04/18 07:36:34;;;;;;;13.38;3.83;;;;;;;;;;5082459;28;20119;-75
2021/04/18 07:39:00;;;;;;;18.88;3.60;;;;;;;;;;5084990;28;20054;-75
2021/04/18 07:41:27;;;;;;;17.77;4.00;;;;;;;;;;5086391;28;21684;-75
2021/04/18 07:43:53;;;;;;;17.15;3.92;;;;;;;;;;5082559;28;20024;-75
2021/04/18 07:46:20;;;;;;;15.35;3.13;;;;;;;;;;5086594;28;20028;-75
2021/04/18 07:48:47;;;;;;;12.45;3.15;;;;;;;;;;5085822;28;20111;-74
2021/04/18 07:51:13;;;;;;;17.02;4.38;;;;;;;;;;5083687;28;20528;-74
2021/04/18 07:53:40;;;;;;;12.32;3.10;;;;;;;;;;5088673;28;20756;-74
2021/04/18 07:56:08;;;;;;;10.68;3.30;;;;;;;;;;5084507;28;20064;-75
2021/04/18 07:58:36;;;;;;;20.85;3.50;;;;;;;;;;5082504;28;20073;-76
2021/04/18 08:01:02;;;;;;;14.98;3.75;;;;;;;;;;5080597;28;20020;-75
2021/04/18 08:03:28;;;;;;;14.35;3.40;;;;;;;;;;5081215;28;20035;-75
2021/04/18 08:05:54;;;;;;;13.60;3.38;;;;;;;;;;5084445;28;20036;-76
2021/04/18 08:08:21;;;;;;;12.48;3.58;;;;;;;;;;5084907;28;20081;-75
2021/04/18 08:10:48;;;;;;;13.73;4.07;;;;;;;;;;5080752;28;20020;-75
2021/04/18 08:13:18;;;;;;;12.75;3.55;;;;;;;;;;5083880;28;20099;-75
2021/04/18 08:16:04;;;;;;;14.40;3.30;;;;;;;;;;5085079;28;20775;-76
2021/04/18 08:18:40;;;;;;;16.00;3.97;;;;;;;;;;5081570;28;20044;-75
2021/04/18 08:21:25;;;;;;;14.98;3.13;;;;;;;;;;5070927;28;20024;-75
2021/04/18 08:23:51;;;;;;;14.52;3.45;;;;;;;;;;5080783;28;20574;-75
2021/04/18 08:26:18;;;;;;;16.60;3.40;;;;;;;;;;5083009;28;20042;-75
2021/04/18 08:28:50;;;;;;;14.52;2.83;;;;;;;;;;5080364;28;20028;-74
2021/04/18 08:31:17;;;;;;;15.15;4.35;;;;;;;;;;5080354;28;20490;-75
2021/04/18 08:33:44;;;;;;;14.77;2.80;;;;;;;;;;5079518;28;20509;-74
2021/04/18 08:36:10;;;;;;;13.60;3.17;;;;;;;;;;5080616;28;20028;-75
2021/04/18 08:38:36;;;;;;;9.00;2.72;;;;;;;;;;5079566;28;20025;-76
2021/04/18 08:41:06;;;;;;;19.23;3.95;;;;;;;;;;5078329;28;20497;-75
2021/04/18 08:43:33;;;;;;;10.25;3.42;;;;;;;;;;5081144;28;20035;-75
2021/04/18 08:45:59;;;;;;;12.90;3.65;;;;;;;;;;5082510;28;20076;-74
2021/04/18 08:48:25;;;;;;;14.80;4.75;;;;;;;;;;5080474;28;20510;-74
2021/04/18 08:51:01;;;;;;;14.88;3.45;;;;;;;;;;5078066;28;20031;-76
2021/04/18 08:53:27;;;;;;;11.38;2.97;;;;;;;;;;5079392;28;20111;-76
2021/04/18 08:55:57;;;;;;;12.70;2.83;;;;;;;;;;5078794;28;20665;-76
2021/04/18 08:58:37;;;;;;;16.48;3.67;;;;;;;;;;5081260;28;20016;-76
2021/04/18 09:01:07;;;;;;;15.18;3.00;;;;;;;;;;5081127;28;20017;-75
2021/04/18 09:03:33;;;;;;;15.95;4.25;;;;;;;;;;5088309;28;20027;-76
2021/04/18 09:06:22;;;;;;;21.15;3.22;;;;;;;;;;5077971;28;20036;-74
2021/04/18 09:08:55;;;;;;;14.18;3.70;;;;;;;;;;5085378;28;20020;-75
2021/04/18 09:11:22;;;;;;;12.13;2.80;;;;;;;;;;5082000;28;20554;-76
2021/04/18 09:13:54;;;;;;;13.90;3.08;;;;;;;;;;5085580;28;20494;-75
2021/04/18 09:16:24;;;;;;;16.48;3.53;;;;;;;;;;5081443;28;20055;-76
2021/04/18 09:18:50;;;;;;;15.18;3.85;;;;;;;;;;5081139;28;20428;-77
2021/04/18 09:21:17;;;;;;;13.65;3.10;;;;;;;;;;5087182;28;20447;-75
2021/04/18 09:23:56;;;;;;;13.30;3.20;;;;;;;;;;5085228;28;20054;-75
2021/04/18 09:26:22;;;;;;;13.70;2.70;;;;;;;;;;5076124;28;20024;-75
2021/04/18 09:29:07;;;;;;;14.95;2.88;;;;;;;;;;5083584;28;20027;-76
2021/04/18 09:31:33;;;;;;;13.93;3.25;;;;;;;;;;5083093;28;20052;-74
2021/04/18 09:34:05;;;;;;;10.48;3.17;;;;;;;;;;5086310;28;20078;-73
2021/04/18 09:36:31;;;;;;;15.05;2.88;;;;;;;;;;5085642;28;20032;-75
2021/04/18 09:38:59;;;;;;;12.45;2.70;;;;;;;;;;5082200;28;20030;-76
2021/04/18 09:41:26;;;;;;;15.68;2.88;;;;;;;;;;5081254;28;20081;-76
2021/04/18 09:43:56;;;;;;;15.52;3.83;;;;;;;;;;5089041;28;20122;-76
2021/04/18 09:46:22;;;;;;;13.25;2.97;;;;;;;;;;5081700;28;20020;-76
2021/04/18 09:49:01;;;;;;;11.20;2.72;;;;;;;;;;5083691;28;20020;-76
2021/04/18 09:51:27;;;;;;;13.60;2.95;;;;;;;;;;5081696;28;20020;-77
2021/04/18 09:54:00;;;;;;;12.00;2.55;;;;;;;;;;5081500;28;20296;-76
2021/04/18 09:56:26;;;;;;;15.63;3.40;;;;;;;;;;5083739;28;20052;-75
2021/04/18 09:58:52;;;;;;;12.55;3.03;;;;;;;;;;5080568;28;20200;-73
2021/04/18 10:01:24;;;;;;;11.02;2.47;;;;;;;;;;5087406;28;20012;-74
2021/04/18 10:03:50;;;;;;;10.38;3.20;;;;;;;;;;5077770;28;20024;-74
2021/04/18 10:06:16;;;;;;;10.27;2.72;;;;;;;;;;5088178;28;20035;-73
2021/04/18 10:08:52;;;;;;;8.30;2.22;;;;;;;;;;5077857;28;20077;-74
2021/04/18 10:11:18;;;;;;;9.40;2.47;;;;;;;;;;5070752;28;20035;-75
2021/04/18 10:13:56;;;;;;;8.27;2.85;;;;;;;;;;5085389;28;20034;-74
2021/04/18 10:16:22;;;;;;;20.52;3.30;;;;;;;;;;5081370;28;20035;-74
2021/04/18 10:19:07;;;;;;;9.73;2.63;;;;;;;;;;5090254;28;20093;-74
2021/04/18 10:21:33;;;;;;;14.40;3.03;;;;;;;;;;5084673;28;20040;-76
2021/04/18 10:23:59;;;;;;;14.90;3.33;;;;;;;;;;5086566;28;20599;-76
2021/04/18 10:26:25;;;;;;;10.70;3.25;;;;;;;;;;5091445;28;20119;-74
2021/04/18 10:28:53;;;;;;;18.63;3.50;;;;;;;;;;5094757;28;20055;-75
2021/04/18 10:31:20;;;;;;;12.23;2.88;;;;;;;;;;5106500;28;20063;-74
2021/04/18 10:33:46;;;;;;;13.20;3.95;;;;;;;;;;5102285;28;20036;-76
2021/04/18 10:36:13;;;;;;;20.15;3.60;;;;;;;;;;5108449;28;20436;-73
2021/04/18 10:38:39;;;;;;;12.95;2.97;;;;;;;;;;5107277;28;20043;-75
2021/04/18 10:41:05;;;;;;;12.63;3.63;;;;;;;;;;5096487;28;20039;-74
2021/04/18 10:43:32;;;;;;;14.48;3.80;;;;;;;;;;5093162;28;20016;-76
2021/04/18 10:45:58;;;;;;;14.65;3.42;;;;;;;;;;5089400;28;20040;-76
2021/04/18 10:48:24;;;;;;;16.10;4.20;;;;;;;;;;5086776;28;20494;-75
2021/04/18 10:50:50;;;;;;;12.80;3.67;;;;;;;;;;5091570;28;20024;-73
2021/04/18 10:53:17;;;;;;;16.52;3.47;;;;;;;;;;5090943;28;20141;-76
2021/04/18 10:55:43;;;;;;;17.85;5.00;;;;;;;;;;5090807;28;20051;-75
2021/04/18 10:58:10;;;;;;;13.15;3.60;;;;;;;;;;5091557;28;20034;-76
2021/04/18 11:00:36;;;;;;;11.27;3.08;;;;;;;;;;5087602;28;20047;-76
2021/04/18 11:03:02;;;;;;;12.73;3.83;;;;;;;;;;5091615;28;20397;-75
2021/04/18 11:05:28;;;;;;;9.73;2.90;;;;;;;;;;5088809;28;20498;-75
2021/04/18 11:07:54;;;;;;;14.75;3.80;;;;;;;;;;5089279;28;21174;-73
2021/04/18 11:10:20;;;;;;;9.85;3.08;;;;;;;;;;5078182;28;20058;-74
2021/04/18 11:12:47;;;;;;;18.10;3.83;;;;;;;;;;5079253;28;20040;-75
2021/04/18 11:15:13;;;;;;;12.68;3.50;;;;;;;;;;5091127;28;20221;-76
2021/04/18 11:17:39;;;;;;;19.08;4.03;;;;;;;;;;5085740;28;20024;-74
2021/04/18 11:20:06;;;;;;;11.90;3.38;;;;;;;;;;5085792;28;20055;-74
2021/04/18 11:22:32;;;;;;;15.43;3.67;;;;;;;;;;5091600;28;20578;-73
2021/04/18 11:25:00;;;;;;;10.43;3.80;;;;;;;;;;5086553;28;20104;-74
2021/04/18 11:27:26;;;;;;;17.83;4.60;;;;;;;;;;5089964;28;20020;-73
2021/04/18 11:29:53;;;;;;;17.08;5.47;;;;;;;;;;5088273;28;20024;-75
2021/04/18 11:32:20;;;;;;;13.85;4.05;;;;;;;;;;5092385;28;20027;-76
2021/04/18 11:34:46;;;;;;;16.30;4.05;;;;;;;;;;5089813;28;20146;-73
2021/04/18 11:37:12;;;;;;;17.55;4.53;;;;;;;;;;5090451;28;20410;-77
2021/04/18 11:39:38;;;;;;;17.20;5.22;;;;;;;;;;5088560;28;20048;-75
2021/04/18 11:42:05;;;;;;;12.43;4.80;;;;;;;;;;5087917;28;20036;-76
2021/04/18 11:44:31;;;;;;;14.90;4.93;;;;;;;;;;5089489;28;20022;-77
2021/04/18 11:46:57;;;;;;;14.88;4.82;;;;;;;;;;5090166;28;20032;-77
2021/04/18 11:49:23;;;;;;;20.40;6.07;;;;;;;;;;5084894;28;20046;-76
2021/04/18 11:51:49;;;;;;;16.48;5.28;;;;;;;;;;5091896;28;20039;-75
2021/04/18 11:54:15;;;;;;;19.55;4.82;;;;;;;;;;5090782;28;20107;-75
2021/04/18 11:56:41;;;;;;;14.35;5.57;;;;;;;;;;5092850;28;20039;-75
2021/04/18 11:59:07;;;;;;;13.98;5.15;;;;;;;;;;5079312;28;20036;-74
2021/04/18 12:01:35;;;;;;;15.38;4.50;;;;;;;;;;5091027;28;20024;-73
2021/04/18 12:04:01;;;;;;;17.08;4.63;;;;;;;;;;5091947;28;20028;-76
2021/04/18 12:06:27;;;;;;;19.00;4.78;;;;;;;;;;5090428;28;20036;-74
2021/04/18 12:08:53;;;;;;;16.42;4.88;;;;;;;;;;5086382;28;20031;-75
2021/04/18 12:11:19;;;;;;;12.98;4.28;;;;;;;;;;5090095;28;20032;-76
2021/04/18 12:13:46;;;;;;;14.18;4.82;;;;;;;;;;5091354;28;20031;-77
2021/04/18 12:16:14;;;;;;;21.20;5.95;;;;;;;;;;5092278;28;20032;-75
2021/04/18 12:18:41;;;;;;;16.10;5.07;;;;;;;;;;5086713;28;20036;-73
2021/04/18 12:21:07;;;;;;;17.50;5.65;;;;;;;;;;5088321;28;20012;-75
2021/04/18 12:23:33;;;;;;;15.20;6.00;;;;;;;;;;5090380;28;20017;-75
2021/04/18 12:25:59;;;;;;;16.40;6.57;;;;;;;;;;5087703;28;21507;-77
2021/04/18 12:28:26;;;;;;;20.63;6.95;;;;;;;;;;5079755;28;20051;-76
2021/04/18 12:30:52;;;;;;;20.55;5.90;;;;;;;;;;5067495;28;20361;-74
2021/04/18 12:33:18;;;;;;;17.67;7.03;;;;;;;;;;5076399;28;20122;-76
2021/04/18 12:35:44;;;;;;;18.38;6.22;;;;;;;;;;5087026;28;20035;-74
2021/04/18 12:38:10;;;;;;;17.77;7.22;;;;;;;;;;5090823;28;20046;-74
2021/04/18 12:40:36;;;;;;;15.30;6.45;;;;;;;;;;5085549;28;20029;-76
2021/04/18 12:43:02;;;;;;;17.98;6.95;;;;;;;;;;5089746;28;20117;-77
2021/04/18 12:45:29;;;;;;;18.00;7.43;;;;;;;;;;5088317;28;20050;-74
2021/04/18 12:47:55;;;;;;;21.35;7.88;;;;;;;;;;5088659;28;20040;-73
2021/04/18 12:50:21;;;;;;;20.83;7.30;;;;;;;;;;5086936;28;20028;-72
2021/04/18 12:52:47;;;;;;;20.67;7.47;;;;;;;;;;5089768;28;20464;-76
2021/04/18 12:55:13;;;;;;;17.65;7.18;;;;;;;;;;5090579;28;20028;-76
2021/04/18 12:57:39;;;;;;;30.20;8.35;;;;;;;;;;5088514;28;20030;-77
2021/04/18 13:00:07;;;;;;;17.33;8.05;;;;;;;;;;5085830;28;20114;-74
2021/04/18 13:02:33;;;;;;;19.08;7.75;;;;;;;;;;5087101;28;20052;-77
2021/04/18 13:05:01;;;;;;;19.65;6.72;;;;;;;;;;5090570;28;20135;-75
2021/04/18 13:07:31;;;;;;;23.42;7.65;;;;;;;;;;5087326;28;20063;-76
2021/04/18 13:10:08;;;;;;;19.67;6.68;;;;;;;;;;5085454;28;20704;-76
2021/04/18 13:12:34;;;;;;;24.42;6.40;;;;;;;;;;5081167;28;20104;-77
2021/04/18 13:15:01;;;;;;;16.52;6.82;;;;;;;;;;5090585;28;20089;-75
2021/04/18 13:17:28;;;;;;;18.15;6.88;;;;;;;;;;5088980;28;20126;-76
2021/04/18 13:19:54;;;;;;;21.40;8.57;;;;;;;;;;5089344;28;20284;-78
2021/04/18 13:22:20;;;;;;;15.40;7.63;;;;;;;;;;5088958;28;20028;-76
2021/04/18 13:24:46;;;;;;;18.95;8.10;;;;;;;;;;5083456;28;20050;-75
2021/04/18 13:27:13;;;;;;;23.40;8.32;;;;;;;;;;5090526;28;20024;-76
2021/04/18 13:29:40;;;;;;;21.08;8.50;;;;;;;;;;5085007;28;20081;-76
2021/04/18 13:32:07;;;;;;;19.98;8.93;;;;;;;;;;5087557;28;20039;-76
2021/04/18 13:34:33;;;;;;;24.08;8.52;;;;;;;;;;5087474;28;20063;-79
2021/04/18 13:36:59;;;;;;;20.40;9.23;;;;;;;;;;5087633;28;20016;-77
2021/04/18 13:39:25;;;;;;;27.02;9.40;;;;;;;;;;5083376;28;20036;-76
2021/04/18 13:41:51;;;;;;;25.15;9.52;;;;;;;;;;5087109;28;20020;-77
2021/04/18 13:44:18;;;;;;;22.48;9.88;;;;;;;;;;5087547;28;20035;-76
2021/04/18 13:46:47;;;;;;;17.63;8.98;;;;;;;;;;5087169;28;20024;-76
2021/04/18 13:49:13;;;;;;;22.98;10.27;;;;;;;;;;5084372;28;20032;-76
2021/04/18 13:51:40;;;;;;;20.83;8.95;;;;;;;;;;5088697;28;20526;-74
2021/04/18 13:54:06;;;;;;;16.83;9.48;;;;;;;;;;5086971;28;20032;-77
2021/04/18 13:56:33;;;;;;;23.10;9.60;;;;;;;;;;5100279;28;20024;-78
2021/04/18 13:58:59;;;;;;;27.20;10.20;;;;;;;;;;5079585;28;20210;-78
2021/04/18 14:01:25;;;;;;;27.08;9.80;;;;;;;;;;5087796;28;20032;-77
2021/04/18 14:03:52;;;;;;;21.88;9.93;;;;;;;;;;5088248;28;20490;-77
2021/04/18 14:06:19;;;;;;;24.25;9.65;;;;;;;;;;5086585;28;20102;-79
2021/04/18 14:08:46;;;;;;;16.52;7.80;;;;;;;;;;5085968;28;20024;-79
2021/04/18 14:11:12;;;;;;;18.92;7.18;;;;;;;;;;5086215;28;20067;-78
2021/04/18 14:13:38;;;;;;;21.52;8.15;;;;;;;;;;5084816;28;20024;-77
2021/04/18 14:16:05;;;;;;;22.27;8.95;;;;;;;;;;5086229;28;20059;-75
2021/04/18 14:18:31;;;;;;;21.15;7.93;;;;;;;;;;5090181;28;20075;-77
2021/04/18 14:20:57;;;;;;;23.25;8.48;;;;;;;;;;5090784;28;20113;-77
2021/04/18 14:23:24;;;;;;;21.92;9.07;;;;;;;;;;5085065;28;20031;-79
2021/04/18 14:25:50;;;;;;;25.42;9.50;;;;;;;;;;5082370;28;20300;-78
2021/04/18 14:28:16;;;;;;;23.13;9.13;;;;;;;;;;5086462;28;20185;-77
2021/04/18 14:30:42;;;;;;;26.13;9.40;;;;;;;;;;5080003;28;20024;-75